Time;durP1;ratioP1;P1;durP2;ratioP2;P2;SDS_P1;SDS_P2;PMS_P1;PMS_P2;Temp;Humidity;BMP_temperature;BMP_pressure;BME280_temperature;BME280_humidity;BME280_pressure;Samples;Min_cycle;Max_cycle;Signal;HPM_P1;HPM_P2
2023/09/04 00:03:40;;;;;;;7.65;5.28;;;;;16.30;97430.00;;;;8279257;28;20257;-69
2023/09/04 00:07:43;;;;;;;7.32;5.10;;;;;16.20;97424.00;;;;8279863;28;20260;-68
2023/09/04 00:11:52;;;;;;;10.07;5.00;;;;;16.10;97417.00;;;;8281155;28;20194;-68
2023/09/04 00:15:56;;;;;;;5.78;5.18;;;;;16.00;97425.00;;;;8278539;28;20228;-69
2023/09/04 00:19:59;;;;;;;5.97;5.05;;;;;15.90;97427.00;;;;8292332;28;20920;-68
2023/09/04 00:24:02;;;;;;;6.18;5.00;;;;;15.90;97433.00;;;;8266083;28;20288;-69
2023/09/04 00:28:12;;;;;;;6.10;5.25;;;;;15.90;97427.00;;;;8291947;28;20198;-69
2023/09/04 00:32:16;;;;;;;5.63;5.10;;;;;15.80;97431.00;;;;8287033;28;20213;-69
2023/09/04 00:36:19;;;;;;;7.15;5.32;;;;;15.80;97431.00;;;;8286264;28;20244;-68
2023/09/04 00:40:24;;;;;;;8.90;5.38;;;;;15.70;97432.00;;;;8286972;28;20649;-69
2023/09/04 00:44:28;;;;;;;9.65;5.30;;;;;15.60;97423.00;;;;8286391;28;20410;-69
2023/09/04 00:48:34;;;;;;;7.65;5.63;;;;;15.50;97419.00;;;;8282212;28;20280;-69
2023/09/04 00:52:43;;;;;;;7.60;5.88;;;;;15.30;97419.00;;;;8286615;28;20206;-69
2023/09/04 00:56:51;;;;;;;7.97;5.50;;;;;15.20;97423.00;;;;8289418;28;20228;-69
2023/09/04 01:01:01;;;;;;;6.65;5.57;;;;;15.10;97422.00;;;;8284702;28;20840;-69
2023/09/04 01:05:06;;;;;;;7.90;5.70;;;;;14.90;97409.00;;;;8288072;28;20694;-69
2023/09/04 01:09:19;;;;;;;6.47;5.20;;;;;14.80;97416.00;;;;8283433;28;20211;-69
2023/09/04 01:13:27;;;;;;;6.78;6.05;;;;;14.70;97419.00;;;;8286242;28;20210;-69
2023/09/04 01:17:33;;;;;;;8.52;6.03;;;;;14.60;97424.00;;;;8280227;28;20231;-69
2023/09/04 01:21:43;;;;;;;9.70;6.57;;;;;14.50;97410.00;;;;8293333;28;20591;-69
2023/09/04 01:25:56;;;;;;;10.75;6.68;;;;;14.50;97416.00;;;;8297245;28;20290;-69
2023/09/04 01:30:07;;;;;;;11.07;7.28;;;;;14.50;97418.00;;;;8291073;28;20213;-69
2023/09/04 01:34:15;;;;;;;9.18;7.30;;;;;14.50;97433.00;;;;8287950;28;20206;-69
2023/09/04 01:38:21;;;;;;;9.93;6.90;;;;;14.50;97426.00;;;;8283499;28;20272;-69
2023/09/04 01:42:25;;;;;;;11.77;6.60;;;;;14.60;97431.00;;;;8284317;28;20225;-69
2023/09/04 01:46:28;;;;;;;9.32;6.60;;;;;14.60;97434.00;;;;8279312;28;20213;-69
2023/09/04 01:50:33;;;;;;;7.47;6.45;;;;;14.70;97430.00;;;;8285955;28;20214;-68
2023/09/04 01:54:41;;;;;;;7.40;5.57;;;;;14.80;97428.00;;;;8267998;28;20683;-69
2023/09/04 01:58:48;;;;;;;13.52;6.05;;;;;14.80;97431.00;;;;8283129;28;20230;-69
2023/09/04 02:02:53;;;;;;;9.02;5.93;;;;;14.80;97423.00;;;;8294076;28;20225;-69
2023/09/04 02:06:59;;;;;;;7.00;6.10;;;;;14.80;97420.00;;;;8296983;28;20198;-69
2023/09/04 02:11:06;;;;;;;7.57;6.47;;;;;14.80;97418.00;;;;8287273;28;20206;-69
2023/09/04 02:15:15;;;;;;;7.70;6.57;;;;;14.70;97420.00;;;;8286217;28;20214;-69
2023/09/04 02:19:18;;;;;;;7.32;6.38;;;;;14.70;97424.00;;;;8271736;28;20312;-69
2023/09/04 02:23:21;;;;;;;10.27;6.90;;;;;14.80;97412.00;;;;8275431;28;21064;-69
2023/09/04 02:27:26;;;;;;;12.13;7.05;;;;;14.80;97406.00;;;;8281520;28;20209;-69
2023/09/04 02:31:29;;;;;;;11.18;7.30;;;;;14.80;97400.00;;;;8284057;28;20198;-69
2023/09/04 02:35:35;;;;;;;10.50;7.25;;;;;14.80;97403.00;;;;8283790;28;20280;-69
2023/09/04 02:39:38;;;;;;;10.68;7.63;;;;;14.80;97395.00;;;;8283377;28;20209;-69
2023/09/04 02:43:43;;;;;;;10.88;7.78;;;;;14.80;97399.00;;;;8279075;28;20234;-69
2023/09/04 02:47:50;;;;;;;7.63;6.90;;;;;14.70;97396.00;;;;8284663;28;20202;-69
2023/09/04 02:51:56;;;;;;;8.65;6.97;;;;;14.70;97395.00;;;;8283909;28;20224;-69
2023/09/04 02:56:08;;;;;;;16.67;8.23;;;;;14.70;97392.00;;;;8288790;28;20292;-69
2023/09/04 03:00:19;;;;;;;13.02;7.75;;;;;14.60;97400.00;;;;8286432;28;20280;-69
2023/09/04 03:04:25;;;;;;;9.70;8.68;;;;;14.60;97397.00;;;;8325847;22;20238;-69
2023/09/04 03:08:28;;;;;;;10.00;8.65;;;;;14.50;97404.00;;;;8300958;28;20774;-69
2023/09/04 03:12:32;;;;;;;11.18;7.80;;;;;14.50;97409.00;;;;8307138;28;20208;-69
2023/09/04 03:16:45;;;;;;;11.50;8.93;;;;;14.50;97400.00;;;;8300461;28;20236;-69
2023/09/04 03:20:48;;;;;;;12.40;8.50;;;;;14.50;97401.00;;;;8306367;28;20284;-69
2023/09/04 03:24:54;;;;;;;9.45;8.20;;;;;14.40;97392.00;;;;8298203;28;21117;-69
2023/09/04 03:28:57;;;;;;;11.70;8.63;;;;;14.40;97392.00;;;;8313170;28;20734;-69
2023/09/04 03:33:01;;;;;;;9.82;7.68;;;;;14.40;97395.00;;;;8309215;28;20213;-69
2023/09/04 03:37:05;;;;;;;12.32;8.05;;;;;14.40;97384.00;;;;8302527;28;20267;-69
2023/09/04 03:41:11;;;;;;;11.27;8.07;;;;;14.30;97387.00;;;;8294924;28;20268;-68
2023/09/04 03:45:17;;;;;;;16.08;9.88;;;;;14.30;97375.00;;;;8301188;28;20252;-68
2023/09/04 03:49:21;;;;;;;13.27;8.50;;;;;14.20;97389.00;;;;8296950;28;20236;-68
2023/09/04 03:53:24;;;;;;;11.48;8.55;;;;;14.20;97389.00;;;;8290461;28;20938;-68
2023/09/04 03:57:30;;;;;;;12.57;9.07;;;;;14.20;97388.00;;;;8295061;28;20325;-73
2023/09/04 04:01:34;;;;;;;11.25;9.10;;;;;14.10;97386.00;;;;8264887;28;20775;-69
2023/09/04 04:05:40;;;;;;;11.95;8.88;;;;;14.10;97382.00;;;;8226661;28;20282;-69
2023/09/04 04:09:44;;;;;;;15.32;8.82;;;;;14.10;97388.00;;;;8223139;28;20798;-68
2023/09/04 04:13:49;;;;;;;16.02;8.63;;;;;14.00;97378.00;;;;8217363;28;20198;-69
2023/09/04 04:17:52;;;;;;;9.57;8.25;;;;;14.00;97377.00;;;;8224466;28;20234;-68
2023/09/04 04:21:59;;;;;;;9.30;8.10;;;;;13.90;97386.00;;;;8219607;28;20199;-68
2023/09/04 04:26:03;;;;;;;13.38;8.18;;;;;13.90;97390.00;;;;8194268;28;20202;-68
2023/09/04 04:30:12;;;;;;;13.02;8.43;;;;;13.80;97387.00;;;;8216027;28;20288;-68
2023/09/04 04:34:18;;;;;;;13.07;8.40;;;;;13.80;97394.00;;;;8224617;28;20317;-68
2023/09/04 04:38:22;;;;;;;12.30;8.57;;;;;13.80;97404.00;;;;8205989;28;20237;-68
2023/09/04 04:42:28;;;;;;;15.02;8.55;;;;;13.80;97400.00;;;;8215873;28;20219;-69
2023/09/04 04:46:33;;;;;;;12.52;8.93;;;;;13.80;97415.00;;;;8226698;28;20297;-68
2023/09/04 04:50:41;;;;;;;15.43;9.15;;;;;13.80;97418.00;;;;8225230;28;20305;-68
2023/09/04 04:54:47;;;;;;;12.30;8.40;;;;;13.90;97422.00;;;;8222186;28;20900;-68
2023/09/04 04:58:57;;;;;;;9.50;8.48;;;;;13.90;97415.00;;;;8225690;28;20230;-68
2023/09/04 05:03:00;;;;;;;18.17;8.70;;;;;13.90;97409.00;;;;8218776;28;20258;-68
2023/09/04 05:07:03;;;;;;;11.63;8.63;;;;;13.90;97417.00;;;;8216878;28;20227;-68
2023/09/04 05:11:08;;;;;;;10.80;8.68;;;;;13.90;97406.00;;;;8212706;28;20227;-68
2023/09/04 05:15:11;;;;;;;14.30;8.25;;;;;13.90;97407.00;;;;8223371;28;20234;-68
2023/09/04 05:19:15;;;;;;;10.50;8.18;;;;;14.00;97412.00;;;;8219029;28;20282;-67
2023/09/04 05:23:19;;;;;;;12.50;8.35;;;;;14.10;97417.00;;;;8224861;28;20210;-67
2023/09/04 05:27:25;;;;;;;12.82;8.23;;;;;14.10;97425.00;;;;8221321;28;20207;-68
2023/09/04 05:31:31;;;;;;;10.43;8.00;;;;;14.20;97415.00;;;;8220110;28;20641;-67
2023/09/04 05:35:35;;;;;;;8.90;7.65;;;;;14.30;97420.00;;;;8224236;28;20199;-67
2023/09/04 05:39:38;;;;;;;11.15;7.85;;;;;14.40;97424.00;;;;8215606;28;20825;-67
2023/09/04 05:43:42;;;;;;;10.32;7.72;;;;;14.40;97420.00;;;;8219023;28;20262;-67
2023/09/04 05:47:45;;;;;;;10.00;8.10;;;;;14.50;97413.00;;;;8215084;28;20203;-68
2023/09/04 05:51:50;;;;;;;12.45;7.32;;;;;14.60;97415.00;;;;8222468;28;20683;-68
2023/09/04 05:56:04;;;;;;;15.48;8.38;;;;;14.70;97418.00;;;;8223102;28;20202;-67
2023/09/04 06:00:10;;;;;;;9.82;8.10;;;;;14.80;97417.00;;;;8225138;28;20227;-67
2023/09/04 06:04:13;;;;;;;7.75;6.95;;;;;14.90;97414.00;;;;8218119;28;20233;-67
2023/09/04 06:08:18;;;;;;;9.23;7.07;;;;;15.00;97416.00;;;;8222442;28;20214;-67
2023/09/04 06:12:24;;;;;;;8.93;7.03;;;;;15.10;97425.00;;;;8221000;28;20195;-68
2023/09/04 06:16:32;;;;;;;7.55;6.75;;;;;15.20;97423.00;;;;8219889;28;20234;-67
2023/09/04 06:20:36;;;;;;;9.52;6.93;;;;;15.20;97431.00;;;;8208562;28;20804;-68
2023/09/04 06:24:45;;;;;;;13.60;7.15;;;;;15.40;97431.00;;;;8214118;28;20250;-67
2023/09/04 06:28:48;;;;;;;8.27;6.22;;;;;15.50;97437.00;;;;8208020;28;20211;-68
2023/09/04 06:32:53;;;;;;;7.13;6.25;;;;;15.60;97443.00;;;;8218501;28;20298;-68
2023/09/04 06:36:56;;;;;;;10.68;6.15;;;;;15.70;97448.00;;;;8217418;28;20612;-68
2023/09/04 06:41:01;;;;;;;9.55;5.90;;;;;15.80;97454.00;;;;8199807;28;20223;-68
2023/09/04 06:45:05;;;;;;;6.97;6.18;;;;;16.00;97468.00;;;;8214121;28;20287;-68
2023/09/04 06:49:15;;;;;;;8.00;6.10;;;;;16.10;97472.00;;;;8215765;28;20204;-67
2023/09/04 06:53:18;;;;;;;9.00;5.57;;;;;16.20;97473.00;;;;8221179;28;20203;-67
2023/09/04 06:57:22;;;;;;;7.72;6.85;;;;;16.30;97474.00;;;;8204857;28;20270;-68
2023/09/04 07:01:25;;;;;;;6.95;5.63;;;;;16.40;97474.00;;;;8220704;28;20290;-67
2023/09/04 07:05:29;;;;;;;8.27;5.75;;;;;16.50;97478.00;;;;8216428;28;20207;-67
2023/09/04 07:09:37;;;;;;;5.82;5.07;;;;;16.70;97479.00;;;;8216030;28;20199;-67
2023/09/04 07:13:40;;;;;;;5.88;5.15;;;;;16.80;97475.00;;;;8215552;28;20282;-68
2023/09/04 07:17:44;;;;;;;7.30;4.50;;;;;17.00;97484.00;;;;8216752;28;20234;-67
2023/09/04 07:21:49;;;;;;;6.00;4.57;;;;;17.20;97483.00;;;;8214665;28;20239;-67
2023/09/04 07:25:55;;;;;;;5.10;4.60;;;;;17.40;97489.00;;;;8209205;28;20211;-67
2023/09/04 07:30:00;;;;;;;5.15;4.60;;;;;17.80;97481.00;;;;8215529;28;20191;-67
2023/09/04 07:34:06;;;;;;;6.30;4.38;;;;;18.20;97482.00;;;;8218900;28;20290;-67
2023/09/04 07:38:12;;;;;;;5.75;4.25;;;;;18.60;97479.00;;;;8216311;28;20676;-67
2023/09/04 07:42:15;;;;;;;4.75;3.88;;;;;19.00;97476.00;;;;8213667;28;20634;-68
2023/09/04 07:46:29;;;;;;;4.35;3.83;;;;;19.30;97479.00;;;;8218843;28;20588;-67
2023/09/04 07:50:36;;;;;;;9.85;3.67;;;;;19.70;97471.00;;;;8211004;28;20211;-67
2023/09/04 07:54:47;;;;;;;5.75;3.63;;;;;20.00;97484.00;;;;8212610;28;20669;-67
2023/09/04 07:58:50;;;;;;;7.47;3.80;;;;;20.60;97484.00;;;;8183047;28;20349;-68
2023/09/04 08:02:56;;;;;;;3.67;3.40;;;;;21.30;97489.00;;;;8213047;28;20689;-68
2023/09/04 08:07:00;;;;;;;5.82;3.78;;;;;22.00;97492.00;;;;8219702;28;20200;-68
2023/09/04 08:11:05;;;;;;;7.05;3.85;;;;;22.80;97479.00;;;;8199736;28;20203;-69
2023/09/04 08:15:10;;;;;;;4.15;3.70;;;;;23.50;97483.00;;;;8212936;28;20207;-69
2023/09/04 08:19:20;;;;;;;7.40;3.75;;;;;24.10;97491.00;;;;8215419;28;20239;-69
2023/09/04 08:23:25;;;;;;;6.25;3.15;;;;;24.50;97500.00;;;;8209568;28;20203;-69
2023/09/04 08:27:30;;;;;;;3.75;3.33;;;;;24.90;97494.00;;;;8214738;28;20214;-70
2023/09/04 08:31:37;;;;;;;3.58;3.25;;;;;25.20;97498.00;;;;8212000;28;20928;-69
2023/09/04 08:35:40;;;;;;;4.63;3.50;;;;;25.60;97500.00;;;;8214235;28;20207;-70
2023/09/04 08:39:45;;;;;;;3.90;3.50;;;;;25.90;97503.00;;;;8221817;28;20306;-70
2023/09/04 08:43:50;;;;;;;3.92;3.50;;;;;26.20;97510.00;;;;8217785;28;20303;-69
2023/09/04 08:47:55;;;;;;;3.67;3.33;;;;;26.30;97502.00;;;;8222117;28;20260;-70
2023/09/04 08:52:00;;;;;;;6.18;3.60;;;;;26.70;97504.00;;;;8223968;28;20204;-70
2023/09/04 08:56:04;;;;;;;3.80;3.50;;;;;26.90;97502.00;;;;8224927;28;20650;-69
2023/09/04 09:00:10;;;;;;;3.92;3.53;;;;;26.90;97498.00;;;;8207643;28;20282;-69
2023/09/04 09:04:15;;;;;;;4.05;3.50;;;;;26.80;97505.00;;;;8220645;28;20325;-69
2023/09/04 09:08:21;;;;;;;3.60;3.30;;;;;26.50;97502.00;;;;8209370;28;20213;-69
2023/09/04 09:12:24;;;;;;;5.30;3.92;;;;;26.40;97510.00;;;;8217518;28;20210;-69
2023/09/04 09:16:34;;;;;;;7.30;3.80;;;;;26.40;97499.00;;;;8222263;28;20310;-69
2023/09/04 09:20:42;;;;;;;4.63;3.88;;;;;26.60;97499.00;;;;8225138;28;21013;-69
2023/09/04 09:24:51;;;;;;;3.97;3.58;;;;;26.60;97494.00;;;;8216652;28;20210;-67
2023/09/04 09:29:03;;;;;;;4.25;3.50;;;;;26.40;97490.00;;;;8223197;28;20326;-67
2023/09/04 09:33:15;;;;;;;5.65;3.72;;;;;26.50;97479.00;;;;8223972;28;20199;-68
2023/09/04 09:37:22;;;;;;;4.30;3.90;;;;;26.50;97484.00;;;;8207082;28;20203;-67
2023/09/04 09:41:29;;;;;;;5.47;4.10;;;;;26.90;97475.00;;;;8228148;28;20235;-67
2023/09/04 09:45:33;;;;;;;4.30;3.92;;;;;26.90;97473.00;;;;8212326;28;20230;-67
2023/09/04 09:49:40;;;;;;;4.32;3.92;;;;;27.00;97482.00;;;;8223230;28;20295;-67
2023/09/04 09:53:47;;;;;;;6.97;4.15;;;;;27.50;97469.00;;;;8211199;28;20300;-67
2023/09/04 09:57:51;;;;;;;4.30;3.90;;;;;27.70;97473.00;;;;8211324;28;20207;-67
2023/09/04 10:01:55;;;;;;;3.75;3.47;;;;;28.00;97470.00;;;;8214465;28;20238;-67
2023/09/04 10:06:04;;;;;;;4.40;3.58;;;;;28.40;97465.00;;;;8210947;28;20199;-67
2023/09/04 10:10:10;;;;;;;3.75;3.40;;;;;28.70;97466.00;;;;8215819;28;20212;-67
2023/09/04 10:14:21;;;;;;;4.22;3.20;;;;;28.90;97464.00;;;;8212467;28;20812;-67
2023/09/04 10:18:30;;;;;;;5.18;3.45;;;;;29.00;97459.00;;;;8210549;28;20203;-67
2023/09/04 10:22:48;;;;;;;4.35;3.70;;;;;28.90;97459.00;;;;8217692;28;20283;-67
2023/09/04 10:26:57;;;;;;;4.78;3.30;;;;;28.80;97451.00;;;;8212354;28;20213;-69
2023/09/04 10:31:01;;;;;;;4.32;3.10;;;;;28.80;97452.00;;;;8203481;28;20538;-69
2023/09/04 10:35:08;;;;;;;3.67;3.38;;;;;28.40;97446.00;;;;8203585;28;20226;-69
2023/09/04 10:39:15;;;;;;;3.67;3.45;;;;;28.60;97443.00;;;;8206194;28;20692;-69
2023/09/04 10:43:24;;;;;;;3.60;3.30;;;;;28.80;97444.00;;;;8207113;28;20689;-69
2023/09/04 10:47:27;;;;;;;5.82;3.50;;;;;28.50;97438.00;;;;8206402;28;20199;-69
2023/09/04 10:51:32;;;;;;;4.43;3.83;;;;;28.80;97431.00;;;;8205168;28;20258;-69
2023/09/04 10:55:41;;;;;;;4.70;3.70;;;;;28.90;97432.00;;;;8204811;28;20223;-69
2023/09/04 11:00:03;;;;;;;5.30;3.80;;;;;28.90;97436.00;;;;8220840;28;20313;-67
2023/09/04 11:04:09;;;;;;;3.40;3.10;;;;;28.60;97438.00;;;;8226445;28;20231;-67
2023/09/04 11:08:27;;;;;;;3.53;3.28;;;;;28.10;97434.00;;;;8222300;28;20214;-67
2023/09/04 11:12:35;;;;;;;7.75;3.88;;;;;28.00;97436.00;;;;8217038;28;20693;-67
2023/09/04 11:16:48;;;;;;;4.63;3.40;;;;;28.20;97431.00;;;;8202813;28;20669;-68
2023/09/04 11:20:56;;;;;;;3.35;3.05;;;;;28.50;97426.00;;;;8226559;28;20231;-67
2023/09/04 11:24:59;;;;;;;2.83;2.60;;;;;28.90;97425.00;;;;8217566;28;20209;-68
2023/09/04 11:29:06;;;;;;;2.90;2.80;;;;;29.20;97430.00;;;;8219614;28;20212;-67
2023/09/04 11:33:12;;;;;;;3.38;3.08;;;;;29.20;97420.00;;;;8231680;28;21000;-68
2023/09/04 11:37:16;;;;;;;3.58;3.28;;;;;29.00;97416.00;;;;8220345;28;20206;-67
2023/09/04 11:41:23;;;;;;;3.17;2.97;;;;;28.70;97403.00;;;;8226733;28;20321;-67
2023/09/04 11:45:29;;;;;;;3.55;2.95;;;;;28.20;97404.00;;;;8224047;28;20925;-67
2023/09/04 11:49:37;;;;;;;3.50;3.30;;;;;27.80;97405.00;;;;8224056;28;20935;-68
2023/09/04 11:53:41;;;;;;;5.03;3.08;;;;;27.40;97405.00;;;;8220017;28;20207;-68
2023/09/04 11:57:44;;;;;;;2.97;2.78;;;;;27.00;97404.00;;;;8213032;28;20295;-68
2023/09/04 12:01:50;;;;;;;3.30;2.80;;;;;26.60;97398.00;;;;8217432;28;20231;-68
2023/09/04 12:05:53;;;;;;;3.22;2.92;;;;;26.30;97400.00;;;;8213605;28;20203;-68
2023/09/04 12:09:59;;;;;;;8.02;3.38;;;;;26.20;97408.00;;;;8207880;28;20200;-68
2023/09/04 12:14:16;;;;;;;3.20;3.00;;;;;26.10;97401.00;;;;8220672;28;20199;-68
2023/09/04 12:18:22;;;;;;;3.15;2.95;;;;;26.10;97405.00;;;;8209548;28;20196;-68
2023/09/04 12:22:26;;;;;;;2.85;2.65;;;;;26.10;97401.00;;;;8219482;28;20271;-68
2023/09/04 12:26:29;;;;;;;3.30;2.97;;;;;26.20;97393.00;;;;8217889;28;20206;-68
2023/09/04 12:30:36;;;;;;;4.20;2.85;;;;;26.40;97388.00;;;;8231016;28;20210;-68
2023/09/04 12:34:41;;;;;;;2.90;2.70;;;;;26.60;97383.00;;;;8219942;28;20203;-68
2023/09/04 12:38:44;;;;;;;5.32;3.20;;;;;26.60;97378.00;;;;8223850;28;20833;-68
2023/09/04 12:42:47;;;;;;;3.90;2.88;;;;;26.50;97374.00;;;;8228449;28;20238;-68
2023/09/04 12:46:55;;;;;;;3.25;2.92;;;;;26.50;97370.00;;;;8200388;28;20733;-68
2023/09/04 12:51:02;;;;;;;4.82;2.65;;;;;26.40;97357.00;;;;8213206;28;20231;-68
2023/09/04 12:55:05;;;;;;;5.28;3.05;;;;;26.60;97362.00;;;;8225281;28;20298;-68
2023/09/04 12:59:09;;;;;;;3.45;2.90;;;;;26.70;97352.00;;;;8211873;28;20627;-68
2023/09/04 13:03:12;;;;;;;4.75;2.75;;;;;26.80;97347.00;;;;8219230;28;20234;-68
2023/09/04 13:07:17;;;;;;;2.65;2.50;;;;;26.90;97344.00;;;;8217349;28;20601;-68
2023/09/04 13:11:20;;;;;;;3.00;2.78;;;;;26.90;97340.00;;;;8219607;28;20226;-68
2023/09/04 13:15:23;;;;;;;4.70;3.58;;;;;26.90;97344.00;;;;8215950;28;20298;-68
2023/09/04 13:19:29;;;;;;;2.67;2.53;;;;;27.00;97337.00;;;;8213959;28;20195;-68
2023/09/04 13:23:38;;;;;;;4.10;3.08;;;;;27.10;97331.00;;;;8210649;28;20915;-68
2023/09/04 13:27:41;;;;;;;3.45;3.15;;;;;27.10;97332.00;;;;8204700;28;20210;-68
2023/09/04 13:31:45;;;;;;;6.38;3.10;;;;;27.20;97325.00;;;;8210568;28;20203;-68
2023/09/04 13:35:48;;;;;;;3.50;3.20;;;;;27.40;97322.00;;;;8224887;28;20319;-68
2023/09/04 13:39:53;;;;;;;5.60;3.13;;;;;27.50;97309.00;;;;8216430;28;20279;-68
2023/09/04 13:43:58;;;;;;;3.80;2.78;;;;;27.60;97311.00;;;;8216364;28;20857;-68
2023/09/04 13:48:05;;;;;;;5.85;3.08;;;;;28.10;97305.00;;;;8219164;28;20203;-77
2023/09/04 13:52:13;;;;;;;3.83;2.58;;;;;28.70;97310.00;;;;8214972;28;20218;-68
2023/09/04 13:56:17;;;;;;;3.67;2.92;;;;;29.10;97297.00;;;;8217746;28;20696;-68
2023/09/04 14:00:20;;;;;;;3.42;2.50;;;;;29.60;97305.00;;;;8214447;28;20612;-69
2023/09/04 14:04:23;;;;;;;3.45;2.80;;;;;29.90;97299.00;;;;8213341;28;20781;-69
2023/09/04 14:08:27;;;;;;;2.88;2.67;;;;;29.90;97285.00;;;;8210502;28;20195;-68
2023/09/04 14:12:34;;;;;;;2.60;2.42;;;;;29.70;97294.00;;;;8215280;28;20199;-68
2023/09/04 14:16:40;;;;;;;3.10;2.70;;;;;29.40;97298.00;;;;8215640;28;20210;-68
2023/09/04 14:20:44;;;;;;;2.95;2.63;;;;;29.40;97285.00;;;;8215382;28;20254;-68
2023/09/04 14:24:47;;;;;;;5.10;2.88;;;;;29.60;97281.00;;;;8220690;28;20322;-69
2023/09/04 14:28:52;;;;;;;2.70;2.50;;;;;29.40;97282.00;;;;8228125;28;20274;-69
2023/09/04 14:32:57;;;;;;;9.48;2.90;;;;;29.00;97283.00;;;;8214242;28;20243;-68
2023/09/04 14:37:01;;;;;;;8.30;3.30;;;;;28.70;97280.00;;;;8210225;28;20551;-69
2023/09/04 14:41:25;;;;;;;2.80;2.60;;;;;28.60;97278.00;;;;8212959;28;20282;-68
2023/09/04 14:45:31;;;;;;;4.10;2.58;;;;;28.60;97271.00;;;;8214465;28;20255;-68
2023/09/04 14:49:37;;;;;;;9.60;2.60;;;;;28.40;97268.00;;;;8202015;28;20212;-67
2023/09/04 14:53:41;;;;;;;3.95;2.53;;;;;28.30;97265.00;;;;8212397;28;20314;-68
2023/09/04 14:57:46;;;;;;;2.88;2.65;;;;;28.30;97268.00;;;;8216964;28;20309;-68
2023/09/04 15:01:53;;;;;;;2.55;2.28;;;;;28.10;97265.00;;;;8211373;28;20243;-68
2023/09/04 15:06:04;;;;;;;3.78;2.53;;;;;28.10;97267.00;;;;8212018;28;20979;-68
2023/09/04 15:10:11;;;;;;;2.78;2.22;;;;;28.00;97261.00;;;;8211974;28;20199;-68
2023/09/04 15:14:14;;;;;;;10.18;2.85;;;;;28.00;97259.00;;;;8210850;28;20792;-68
2023/09/04 15:18:20;;;;;;;7.97;3.00;;;;;28.10;97254.00;;;;8212212;28;20208;-68
2023/09/04 15:22:28;;;;;;;5.50;2.60;;;;;28.10;97260.00;;;;8216803;28;20891;-68
2023/09/04 15:26:32;;;;;;;2.45;2.30;;;;;28.10;97262.00;;;;8216474;28;20639;-68
2023/09/04 15:30:40;;;;;;;2.97;2.55;;;;;28.10;97259.00;;;;8215698;28;20241;-68
2023/09/04 15:34:45;;;;;;;4.72;2.60;;;;;28.00;97254.00;;;;8210585;28;20207;-67
2023/09/04 15:38:54;;;;;;;2.20;2.08;;;;;27.80;97258.00;;;;8204885;28;20199;-68
2023/09/04 15:43:00;;;;;;;10.57;2.70;;;;;27.60;97253.00;;;;8209414;28;20687;-68
2023/09/04 15:47:04;;;;;;;3.00;2.30;;;;;27.60;97248.00;;;;8211554;28;20733;-67
2023/09/04 15:51:11;;;;;;;4.10;2.65;;;;;27.70;97254.00;;;;8208243;28;20211;-74
2023/09/04 15:55:14;;;;;;;2.65;2.33;;;;;27.80;97257.00;;;;8196056;28;20217;-70
2023/09/04 15:59:22;;;;;;;2.42;2.22;;;;;27.90;97257.00;;;;8212835;28;20214;-70
2023/09/04 16:03:26;;;;;;;2.65;2.33;;;;;28.00;97247.00;;;;8222685;28;20673;-70
2023/09/04 16:07:31;;;;;;;2.53;2.33;;;;;28.20;97244.00;;;;8220107;28;20203;-69
2023/09/04 16:11:37;;;;;;;2.22;2.13;;;;;28.50;97243.00;;;;8217617;28;20207;-69
2023/09/04 16:15:42;;;;;;;2.22;2.03;;;;;28.80;97248.00;;;;8219600;28;20735;-70
2023/09/04 16:19:48;;;;;;;2.58;2.20;;;;;29.10;97249.00;;;;8223523;28;20203;-69
2023/09/04 16:23:54;;;;;;;2.60;2.40;;;;;29.40;97248.00;;;;8224428;28;20230;-69
2023/09/04 16:27:59;;;;;;;4.38;2.70;;;;;29.70;97259.00;;;;8223551;28;20236;-69
2023/09/04 16:32:03;;;;;;;2.70;2.20;;;;;30.00;97243.00;;;;8200632;28;20199;-70
2023/09/04 16:36:07;;;;;;;3.33;2.22;;;;;30.20;97252.00;;;;8223132;28;20202;-70
2023/09/04 16:40:13;;;;;;;2.35;2.00;;;;;30.40;97247.00;;;;8224426;28;20227;-69
2023/09/04 16:44:16;;;;;;;2.47;2.28;;;;;30.50;97256.00;;;;8224272;28;20237;-70
2023/09/04 16:48:20;;;;;;;2.55;2.35;;;;;30.50;97259.00;;;;8219619;28;20203;-69
2023/09/04 16:52:23;;;;;;;2.65;1.92;;;;;29.80;97253.00;;;;8226113;28;20238;-69
2023/09/04 16:56:29;;;;;;;1.98;1.88;;;;;29.00;97259.00;;;;8224303;28;20199;-69
2023/09/04 17:00:32;;;;;;;4.05;2.47;;;;;28.20;97257.00;;;;8222576;28;20203;-69
2023/09/04 17:04:38;;;;;;;2.50;2.30;;;;;27.40;97240.00;;;;8227273;28;20286;-69
2023/09/04 17:08:42;;;;;;;2.65;2.45;;;;;26.80;97242.00;;;;8216312;28;20206;-67
2023/09/04 17:12:49;;;;;;;3.08;2.05;;;;;26.20;97232.00;;;;8219705;28;20651;-67
2023/09/04 17:16:52;;;;;;;2.17;1.85;;;;;25.70;97226.00;;;;8201201;28;20203;-67
2023/09/04 17:20:56;;;;;;;2.20;2.10;;;;;25.30;97220.00;;;;8218376;28;20291;-67
2023/09/04 17:24:59;;;;;;;2.45;2.25;;;;;24.90;97210.00;;;;8220896;28;20326;-66
2023/09/04 17:29:05;;;;;;;2.47;2.22;;;;;24.50;97205.00;;;;8219625;28;20200;-66
2023/09/04 17:33:09;;;;;;;4.03;2.28;;;;;24.10;97212.00;;;;8204713;28;20290;-66
2023/09/04 17:37:12;;;;;;;3.08;2.25;;;;;23.70;97210.00;;;;8219209;28;20207;-66
2023/09/04 17:41:15;;;;;;;2.30;2.20;;;;;23.20;97211.00;;;;8202992;28;20207;-66
2023/09/04 17:45:21;;;;;;;3.85;2.15;;;;;22.70;97209.00;;;;8220797;28;20227;-66
2023/09/04 17:49:26;;;;;;;3.35;2.22;;;;;22.30;97210.00;;;;8203961;28;20286;-66
2023/09/04 17:53:30;;;;;;;3.35;2.00;;;;;22.00;97216.00;;;;8208384;28;20191;-66
2023/09/04 17:57:34;;;;;;;5.03;2.10;;;;;21.80;97217.00;;;;8203696;28;20644;-66
2023/09/04 18:01:40;;;;;;;2.28;2.08;;;;;21.60;97220.00;;;;8204540;28;20265;-66
2023/09/04 18:05:43;;;;;;;2.08;1.90;;;;;21.40;97217.00;;;;8201895;28;20636;-67
2023/09/04 18:09:47;;;;;;;3.95;2.20;;;;;21.30;97211.00;;;;8213122;28;20202;-66
2023/09/04 18:13:52;;;;;;;2.88;2.33;;;;;21.20;97219.00;;;;8212478;28;20203;-66
2023/09/04 18:18:00;;;;;;;4.50;2.10;;;;;21.10;97218.00;;;;8207196;28;20226;-69
2023/09/04 18:22:03;;;;;;;3.13;2.00;;;;;21.00;97228.00;;;;8203519;28;20239;-64
2023/09/04 18:26:08;;;;;;;2.45;2.10;;;;;20.90;97216.00;;;;8200212;28;20315;-65
2023/09/04 18:30:13;;;;;;;4.00;2.38;;;;;20.70;97215.00;;;;8210724;28;20200;-65
2023/09/04 18:34:19;;;;;;;2.70;2.50;;;;;20.50;97221.00;;;;8214289;28;20310;-65
2023/09/04 18:38:25;;;;;;;3.35;2.40;;;;;20.20;97227.00;;;;8214388;28;20283;-65
2023/09/04 18:42:28;;;;;;;2.75;2.55;;;;;20.00;97228.00;;;;8212564;28;20235;-64
2023/09/04 18:46:32;;;;;;;2.33;2.08;;;;;19.90;97232.00;;;;8211005;28;20903;-64
2023/09/04 18:50:36;;;;;;;2.35;2.20;;;;;19.80;97230.00;;;;8209920;28;20203;-64
2023/09/04 18:54:39;;;;;;;2.35;2.00;;;;;19.70;97240.00;;;;8206306;28;20282;-65
2023/09/04 18:58:46;;;;;;;4.82;2.10;;;;;19.50;97234.00;;;;8209803;28;20200;-64
2023/09/04 19:02:51;;;;;;;1.98;1.88;;;;;19.30;97239.00;;;;8212304;28;20694;-65
2023/09/04 19:07:00;;;;;;;2.58;2.33;;;;;19.30;97235.00;;;;8210864;28;20211;-64
2023/09/04 19:11:04;;;;;;;3.90;2.35;;;;;19.20;97237.00;;;;8213904;28;20322;-63
2023/09/04 19:15:09;;;;;;;3.20;2.40;;;;;19.10;97240.00;;;;8214347;28;20876;-64
2023/09/04 19:19:14;;;;;;;5.20;2.22;;;;;18.90;97234.00;;;;8217964;28;20195;-64
2023/09/04 19:23:19;;;;;;;3.88;2.42;;;;;18.80;97229.00;;;;8206937;28;20912;-64
2023/09/04 19:27:25;;;;;;;3.72;2.35;;;;;18.70;97238.00;;;;8207862;28;20310;-64
2023/09/04 19:31:28;;;;;;;7.85;2.28;;;;;18.70;97242.00;;;;8218568;28;22682;-64
2023/09/04 19:35:31;;;;;;;3.38;2.80;;;;;18.60;97246.00;;;;8218958;28;20199;-64
2023/09/04 19:39:39;;;;;;;2.63;2.20;;;;;18.50;97246.00;;;;8213356;28;20201;-64
2023/09/04 19:43:54;;;;;;;4.05;2.25;;;;;18.40;97242.00;;;;8200626;28;20235;-65
2023/09/04 19:48:00;;;;;;;3.70;2.50;;;;;18.40;97243.00;;;;8215016;28;20196;-65
2023/09/04 19:52:06;;;;;;;4.22;2.33;;;;;18.30;97244.00;;;;8212105;28;20247;-65
2023/09/04 19:56:11;;;;;;;2.50;2.30;;;;;18.30;97236.00;;;;8211419;28;20210;-65
2023/09/04 20:00:15;;;;;;;3.83;2.42;;;;;18.30;97243.00;;;;8211304;28;20242;-65
2023/09/04 20:04:19;;;;;;;2.55;2.35;;;;;18.20;97241.00;;;;8217589;28;20235;-65
2023/09/04 20:08:23;;;;;;;3.20;2.33;;;;;18.20;97242.00;;;;8213157;28;20291;-65
2023/09/04 20:12:30;;;;;;;5.25;2.45;;;;;18.10;97236.00;;;;8212296;28;20211;-65
2023/09/04 20:16:35;;;;;;;5.43;2.47;;;;;18.10;97235.00;;;;8216630;28;20208;-65
2023/09/04 20:20:39;;;;;;;6.45;2.78;;;;;18.00;97239.00;;;;8212496;28;20222;-65
2023/09/04 20:24:43;;;;;;;2.53;2.33;;;;;17.90;97235.00;;;;8207952;28;20239;-65
2023/09/04 20:28:47;;;;;;;4.50;2.30;;;;;17.70;97236.00;;;;8212908;28;20287;-65